createdAt,value
2022-11-16T00:01:49.474Z,26.13
2022-11-16T00:06:59.017Z,20.77
2022-11-16T00:12:07.532Z,20.80
2022-11-16T00:17:12.839Z,18.00
2022-11-16T00:22:20.427Z,18.57
2022-11-16T00:27:25.262Z,18.90
2022-11-16T00:32:31.302Z,20.10
2022-11-16T00:37:38.753Z,18.77
2022-11-16T00:42:43.664Z,17.97
2022-11-16T00:47:48.759Z,16.70
2022-11-16T00:52:56.809Z,15.50
2022-11-16T00:58:02.554Z,14.67
2022-11-16T01:03:07.730Z,16.00
2022-11-16T01:08:15.389Z,18.23
2022-11-16T01:13:20.274Z,15.03
2022-11-16T01:18:25.139Z,15.67
2022-11-16T01:23:33.039Z,13.60
2022-11-16T01:28:40.730Z,15.90
2022-11-16T01:33:46.249Z,20.00
2022-11-16T01:39:03.592Z,13.80
2022-11-16T01:44:54.518Z,14.93
2022-11-16T01:50:05.983Z,12.83
2022-11-16T01:55:16.494Z,17.07
2022-11-16T02:00:42.003Z,16.87
2022-11-16T02:06:29.788Z,15.53
2022-11-16T02:12:08.019Z,17.13
2022-11-16T02:17:23.613Z,18.33
2022-11-16T02:22:42.487Z,17.40
2022-11-16T02:28:08.382Z,17.57
2022-11-16T02:33:18.908Z,16.07
2022-11-16T02:38:29.439Z,18.10
2022-11-16T02:43:40.399Z,18.23
2022-11-16T02:48:52.112Z,21.03
2022-11-16T02:54:04.963Z,15.50
2022-11-16T02:59:17.393Z,15.03
2022-11-16T03:04:31.369Z,15.87
2022-11-16T03:09:39.679Z,18.93
2022-11-16T03:14:53.578Z,18.37
2022-11-16T03:20:08.456Z,23.63
2022-11-16T03:25:19.694Z,19.17
2022-11-16T03:30:36.267Z,21.63
2022-11-16T03:35:53.253Z,26.20
2022-11-16T03:41:02.678Z,23.70
2022-11-16T03:46:12.345Z,24.77
2022-11-16T03:51:22.393Z,27.70
2022-11-16T03:56:27.633Z,26.10
2022-11-16T04:01:33.730Z,27.40
2022-11-16T04:06:54.262Z,23.80
2022-11-16T04:12:12.936Z,23.10
2022-11-16T04:17:31.680Z,28.13
2022-11-16T04:23:00.276Z,23.67
2022-11-16T04:28:19.103Z,25.77
2022-11-16T04:33:42.175Z,27.03
2022-11-16T04:38:52.042Z,22.47
2022-11-16T04:43:59.677Z,19.83
2022-11-16T04:49:04.705Z,23.93
2022-11-16T04:54:13.111Z,26.10
2022-11-16T04:59:19.207Z,24.27
2022-11-16T05:04:24.469Z,21.33
2022-11-16T05:09:32.377Z,22.00
2022-11-16T05:14:39.520Z,22.93
2022-11-16T05:19:58.835Z,23.27
2022-11-16T05:25:10.563Z,20.93
2022-11-16T05:30:18.716Z,19.83
2022-11-16T05:35:23.828Z,20.90
2022-11-16T05:40:33.022Z,23.47
2022-11-16T05:45:39.089Z,18.43
2022-11-16T05:50:46.476Z,20.03
2022-11-16T05:56:06.342Z,20.00
2022-11-16T06:01:14.607Z,17.33
2022-11-16T06:06:20.786Z,18.23
2022-11-16T06:11:35.691Z,18.80
2022-11-16T06:16:42.542Z,14.73
2022-11-16T06:21:51.239Z,15.60
2022-11-16T06:27:01.705Z,17.17
2022-11-16T06:32:07.088Z,13.87
2022-11-16T06:37:12.858Z,16.20
2022-11-16T06:42:20.826Z,14.63
2022-11-16T06:47:25.788Z,17.03
2022-11-16T06:52:31.174Z,14.57
2022-11-16T06:57:41.109Z,13.67
2022-11-16T07:02:46.931Z,12.27
2022-11-16T07:07:56.945Z,12.80
2022-11-16T07:13:09.570Z,13.33
2022-11-16T07:18:16.965Z,12.50
2022-11-16T07:23:22.206Z,14.07
2022-11-16T07:28:31.454Z,12.77
2022-11-16T07:33:37.592Z,11.40
2022-11-16T07:39:09.447Z,12.67
2022-11-16T07:44:17.445Z,11.93
2022-11-16T07:49:36.279Z,10.00
2022-11-16T07:54:48.942Z,12.50
2022-11-16T07:59:57.004Z,13.53
2022-11-16T08:05:02.008Z,10.93
2022-11-16T08:10:08.952Z,15.50
2022-11-16T08:15:16.958Z,15.20
2022-11-16T08:20:24.705Z,17.87
2022-11-16T08:25:30.379Z,12.53
2022-11-16T08:30:38.505Z,11.70
2022-11-16T08:35:44.687Z,11.07
2022-11-16T08:40:51.006Z,12.50
2022-11-16T08:46:00.231Z,10.47
2022-11-16T08:51:17.438Z,11.90
2022-11-16T08:56:30.364Z,10.17
2022-11-16T09:01:38.292Z,11.37
2022-11-16T09:06:43.284Z,10.23
2022-11-16T09:11:50.156Z,10.10
2022-11-16T09:16:57.876Z,10.93
2022-11-16T09:22:03.102Z,11.73
2022-11-16T09:27:09.454Z,8.80
2022-11-16T09:32:17.361Z,11.93
2022-11-16T09:37:22.746Z,9.00
2022-11-16T09:42:39.140Z,9.60
2022-11-16T09:47:51.794Z,8.40
2022-11-16T09:53:01.338Z,8.87
2022-11-16T09:58:15.061Z,7.77
2022-11-16T10:03:22.708Z,8.10
2022-11-16T10:08:43.387Z,9.07
2022-11-16T10:14:04.324Z,10.53
2022-11-16T10:19:22.157Z,9.40
2022-11-16T10:24:34.460Z,8.50
2022-11-16T10:29:56.474Z,7.70
2022-11-16T10:35:15.830Z,9.50
2022-11-16T10:40:25.280Z,8.57
2022-11-16T10:45:40.727Z,7.67
2022-11-16T10:50:52.159Z,8.17
2022-11-16T10:56:12.852Z,7.73
2022-11-16T11:01:31.283Z,8.03
2022-11-16T11:06:43.343Z,9.50
2022-11-16T11:12:13.292Z,7.03
2022-11-16T11:17:20.835Z,7.67
2022-11-16T11:22:29.270Z,9.13
2022-11-16T11:27:38.265Z,8.57
2022-11-16T11:32:44.905Z,8.50
2022-11-16T11:37:55.769Z,7.20
2022-11-16T11:43:04.026Z,7.20
2022-11-16T11:48:26.155Z,6.20
2022-11-16T11:53:49.147Z,7.70
2022-11-16T11:58:54.356Z,9.63
2022-11-16T12:04:31.638Z,7.07
2022-11-16T12:09:48.812Z,8.60
2022-11-16T12:15:05.990Z,8.00
2022-11-16T12:20:36.426Z,9.80
2022-11-16T12:25:54.447Z,8.33
2022-11-16T12:31:14.071Z,8.07
2022-11-16T12:36:32.245Z,10.50
2022-11-16T12:42:07.052Z,11.60
2022-11-16T12:47:23.919Z,11.57
2022-11-16T12:52:46.800Z,9.40
2022-11-16T12:58:05.426Z,8.97
2022-11-16T13:03:23.075Z,11.17
2022-11-16T13:08:40.822Z,10.40
2022-11-16T13:14:00.975Z,10.60
2022-11-16T13:19:20.265Z,11.23
2022-11-16T13:24:41.046Z,11.63
2022-11-16T13:29:56.271Z,11.10
2022-11-16T13:35:03.555Z,10.77
2022-11-16T13:40:15.605Z,12.03
2022-11-16T13:45:26.858Z,12.33
2022-11-16T13:50:39.454Z,14.53
2022-11-16T13:55:47.448Z,13.20
2022-11-16T14:01:06.121Z,14.80
2022-11-16T14:06:41.977Z,15.90
2022-11-16T14:11:47.153Z,16.33
2022-11-16T14:16:54.836Z,16.43
2022-11-16T14:22:07.519Z,14.43
2022-11-16T14:27:30.757Z,20.27
2022-11-16T14:32:47.205Z,42.90
2022-11-16T14:38:02.278Z,41.80
2022-11-16T14:43:17.891Z,56.43
2022-11-16T14:48:29.936Z,62.73
2022-11-16T14:53:38.161Z,60.87
2022-11-16T14:58:52.902Z,56.97
2022-11-16T15:04:04.545Z,50.20
2022-11-16T15:09:09.994Z,57.53
2022-11-16T15:14:21.485Z,47.77
2022-11-16T15:19:32.427Z,56.53
2022-11-16T15:24:38.361Z,48.00
2022-11-16T15:29:43.338Z,45.57
2022-11-16T15:34:59.936Z,47.63
2022-11-16T15:40:14.602Z,46.27
2022-11-16T15:45:24.863Z,47.97
2022-11-16T15:50:36.032Z,44.63
2022-11-16T15:55:43.659Z,44.67
2022-11-16T16:00:51.228Z,44.50
2022-11-16T16:05:59.079Z,41.47
2022-11-16T16:11:09.800Z,33.77
2022-11-16T16:16:37.446Z,41.87
2022-11-16T16:21:49.718Z,35.33
2022-11-16T16:26:54.642Z,36.23
2022-11-16T16:32:00.132Z,33.90
2022-11-16T16:37:08.986Z,34.40
2022-11-16T16:42:16.161Z,31.70
2022-11-16T16:47:23.475Z,30.40
2022-11-16T16:52:31.212Z,30.23
2022-11-16T16:57:36.248Z,27.97
2022-11-16T17:02:48.793Z,23.67
2022-11-16T17:07:57.831Z,26.67
2022-11-16T17:13:03.917Z,24.80
2022-11-16T17:18:10.742Z,20.63
2022-11-16T17:23:19.005Z,19.83
2022-11-16T17:28:24.369Z,22.30
2022-11-16T17:33:29.494Z,16.83
2022-11-16T17:38:38.148Z,15.93
2022-11-16T17:43:44.595Z,12.50
2022-11-16T17:48:50.909Z,8.77
2022-11-16T17:53:59.283Z,8.43
2022-11-16T17:59:07.039Z,7.27
2022-11-16T18:04:14.507Z,6.40
2022-11-16T18:09:22.668Z,8.53
2022-11-16T18:14:30.539Z,7.27
2022-11-16T18:19:36.028Z,6.27
2022-11-16T18:24:44.156Z,6.33
2022-11-16T18:29:51.667Z,6.33
2022-11-16T18:34:57.288Z,7.87
2022-11-16T18:40:07.022Z,5.87
2022-11-16T18:45:13.367Z,7.50
2022-11-16T18:50:26.669Z,5.70
2022-11-16T18:55:35.348Z,6.43
2022-11-16T19:00:44.081Z,8.63
2022-11-16T19:05:49.940Z,5.30
2022-11-16T19:11:00.176Z,6.10
2022-11-16T19:16:06.166Z,6.03
2022-11-16T19:21:14.883Z,6.53
2022-11-16T19:26:26.393Z,6.00
2022-11-16T19:31:34.046Z,5.73
2022-11-16T19:36:40.593Z,6.87
2022-11-16T19:41:49.248Z,7.17
2022-11-16T19:46:57.665Z,6.30
2022-11-16T19:52:06.223Z,6.40
2022-11-16T19:57:15.904Z,6.40
2022-11-16T20:02:21.593Z,6.77
2022-11-16T20:07:28.604Z,6.00
2022-11-16T20:12:37.361Z,12.77
2022-11-16T20:17:42.900Z,6.03
2022-11-16T20:22:51.243Z,7.27
2022-11-16T20:28:02.833Z,7.03
2022-11-16T20:33:11.642Z,6.50
2022-11-16T20:38:17.660Z,5.30
2022-11-16T20:43:26.169Z,7.73
2022-11-16T20:48:32.012Z,5.77
2022-11-16T20:53:38.223Z,6.27
2022-11-16T20:58:46.946Z,8.93
2022-11-16T21:03:54.679Z,7.57
2022-11-16T21:09:00.510Z,7.80
2022-11-16T21:14:20.511Z,8.03
2022-11-16T21:19:25.972Z,8.77
2022-11-16T21:24:32.346Z,7.23
2022-11-16T21:29:40.326Z,7.97
2022-11-16T21:34:45.247Z,6.53
2022-11-16T21:39:50.263Z,7.47
2022-11-16T21:44:57.987Z,7.97
2022-11-16T21:55:29.060Z,8.97
2022-11-16T22:00:36.643Z,9.53
2022-11-16T22:05:53.974Z,7.83
2022-11-16T22:10:58.897Z,7.23
2022-11-16T22:16:11.121Z,8.63
2022-11-16T22:21:16.376Z,7.53
2022-11-16T22:26:21.286Z,8.70
2022-11-16T22:31:28.808Z,8.87
2022-11-16T22:36:33.724Z,6.60
2022-11-16T22:41:38.760Z,7.13
2022-11-16T22:46:46.345Z,6.43
2022-11-16T22:51:51.507Z,7.53
2022-11-16T22:56:56.536Z,7.60
2022-11-16T23:02:05.192Z,8.23
2022-11-16T23:07:10.213Z,7.13
2022-11-16T23:12:29.802Z,8.20
2022-11-16T23:17:37.478Z,6.73
2022-11-16T23:22:54.902Z,7.00
2022-11-16T23:28:02.874Z,6.73
2022-11-16T23:33:10.546Z,6.10
2022-11-16T23:38:15.594Z,4.40
2022-11-16T23:43:33.067Z,5.03
2022-11-16T23:48:41.015Z,4.87
2022-11-16T23:53:46.119Z,5.10
2022-11-16T23:58:52.048Z,4.37
